Gordon, Ohio
Current Conditions -  °F | °C
As of 7:11 PM on Sunday 25 Jan 2015 (Local Time) from KDAY Reporting Station
Light Snow Light Snow  
Wind Chill: 20°   Ceiling: 700
Heat Index: 31°   Visibility: 0.75mi
Dew Point: 30°   Wind: 15mph
Humidity: 96%   Direction: 30°NNE
Pressure: 29.74"   Gusts: NA
Location:  39.93°N, 84.51°W
Report Text: KDAY 260011Z 03013KT 3/4SM R06L/5500VP6000FT -SN BR OVC007 M01/M01 A2974 RMK AO2 P0002 T10061011
Loading
Personal Weather Stations






























Interactive Weather Map New forecast layout! Learn more

10-Day Weather Forecast

Advertisements
Track Severe Weather on mobile